sensor_id;sensor_type;location;lat;lon;timestamp;temperature;humidity
12438;DHT22;6283;51.330;12.374;2022-10-23T00:02:04;12.80;1.00
12438;DHT22;6283;51.330;12.374;2022-10-23T00:04:29;12.70;1.00
12438;DHT22;6283;51.330;12.374;2022-10-23T00:06:55;12.80;1.00
12438;DHT22;6283;51.330;12.374;2022-10-23T00:09:23;12.80;1.00
12438;DHT22;6283;51.330;12.374;2022-10-23T00:11:49;12.70;1.00
12438;DHT22;6283;51.330;12.374;2022-10-23T00:14:18;12.80;1.00
12438;DHT22;6283;51.330;12.374;2022-10-23T00:16:44;12.80;1.00
12438;DHT22;6283;51.330;12.374;2022-10-23T00:19:09;12.80;1.00
12438;DHT22;6283;51.330;12.374;2022-10-23T00:21:35;13.00;1.00
12438;DHT22;6283;51.330;12.374;2022-10-23T00:24:01;12.90;1.00
12438;DHT22;6283;51.330;12.374;2022-10-23T00:26:26;12.90;1.00
12438;DHT22;6283;51.330;12.374;2022-10-23T00:28:53;12.80;1.00
12438;DHT22;6283;51.330;12.374;2022-10-23T00:31:20;12.70;1.00
12438;DHT22;6283;51.330;12.374;2022-10-23T00:33:46;12.80;1.00
12438;DHT22;6283;51.330;12.374;2022-10-23T00:36:14;13.10;1.00
12438;DHT22;6283;51.330;12.374;2022-10-23T00:38:40;12.90;1.00
12438;DHT22;6283;51.330;12.374;2022-10-23T00:41:06;12.70;1.00
12438;DHT22;6283;51.330;12.374;2022-10-23T00:43:33;12.70;1.00
12438;DHT22;6283;51.330;12.374;2022-10-23T00:45:59;12.80;1.00
12438;DHT22;6283;51.330;12.374;2022-10-23T00:48:26;12.80;1.00
12438;DHT22;6283;51.330;12.374;2022-10-23T00:50:52;12.80;1.00
12438;DHT22;6283;51.330;12.374;2022-10-23T00:53:19;12.70;1.00
12438;DHT22;6283;51.330;12.374;2022-10-23T00:55:47;13.00;1.00
12438;DHT22;6283;51.330;12.374;2022-10-23T00:58:16;13.00;1.00
12438;DHT22;6283;51.330;12.374;2022-10-23T01:00:46;12.80;1.00
12438;DHT22;6283;51.330;12.374;2022-10-23T01:03:13;12.80;1.00
12438;DHT22;6283;51.330;12.374;2022-10-23T01:06:14;12.70;1.00
12438;DHT22;6283;51.330;12.374;2022-10-23T01:08:46;12.70;1.00
12438;DHT22;6283;51.330;12.374;2022-10-23T01:11:54;12.60;1.00
12438;DHT22;6283;51.330;12.374;2022-10-23T01:14:30;12.90;1.00
12438;DHT22;6283;51.330;12.374;2022-10-23T01:17:16;12.80;1.00
12438;DHT22;6283;51.330;12.374;2022-10-23T01:22:58;12.60;1.00
12438;DHT22;6283;51.330;12.374;2022-10-23T01:25:49;12.70;1.00
12438;DHT22;6283;51.330;12.374;2022-10-23T01:28:26;12.60;1.00
12438;DHT22;6283;51.330;12.374;2022-10-23T01:30:53;12.60;1.00
12438;DHT22;6283;51.330;12.374;2022-10-23T01:33:37;12.70;1.00
12438;DHT22;6283;51.330;12.374;2022-10-23T01:36:07;12.70;1.00
12438;DHT22;6283;51.330;12.374;2022-10-23T01:41:21;12.70;1.00
12438;DHT22;6283;51.330;12.374;2022-10-23T01:43:57;12.80;1.00
12438;DHT22;6283;51.330;12.374;2022-10-23T01:46:26;12.70;1.00
12438;DHT22;6283;51.330;12.374;2022-10-23T01:48:53;12.80;1.00
12438;DHT22;6283;51.330;12.374;2022-10-23T01:51:23;12.90;1.00
12438;DHT22;6283;51.330;12.374;2022-10-23T01:53:52;12.90;1.00
12438;DHT22;6283;51.330;12.374;2022-10-23T01:56:28;12.70;1.00
12438;DHT22;6283;51.330;12.374;2022-10-23T01:58:57;12.90;1.00
12438;DHT22;6283;51.330;12.374;2022-10-23T02:01:26;13.00;1.00
12438;DHT22;6283;51.330;12.374;2022-10-23T02:03:54;13.00;1.00
12438;DHT22;6283;51.330;12.374;2022-10-23T02:06:20;12.80;1.00
12438;DHT22;6283;51.330;12.374;2022-10-23T02:08:45;12.70;1.00
12438;DHT22;6283;51.330;12.374;2022-10-23T02:11:16;12.90;1.00
12438;DHT22;6283;51.330;12.374;2022-10-23T02:21:58;12.90;1.00
12438;DHT22;6283;51.330;12.374;2022-10-23T02:24:46;13.00;1.00
12438;DHT22;6283;51.330;12.374;2022-10-23T02:27:17;12.80;1.00
12438;DHT22;6283;51.330;12.374;2022-10-23T02:29:52;12.70;1.00
12438;DHT22;6283;51.330;12.374;2022-10-23T02:32:22;12.80;1.00
12438;DHT22;6283;51.330;12.374;2022-10-23T02:34:48;12.70;1.00
12438;DHT22;6283;51.330;12.374;2022-10-23T02:37:14;12.70;1.00
12438;DHT22;6283;51.330;12.374;2022-10-23T02:39:40;12.90;1.00
12438;DHT22;6283;51.330;12.374;2022-10-23T02:42:28;12.80;1.00
12438;DHT22;6283;51.330;12.374;2022-10-23T02:45:06;13.00;1.00
12438;DHT22;6283;51.330;12.374;2022-10-23T02:47:47;13.00;1.00
12438;DHT22;6283;51.330;12.374;2022-10-23T02:50:36;12.80;1.00
12438;DHT22;6283;51.330;12.374;2022-10-23T02:53:09;12.80;1.00
12438;DHT22;6283;51.330;12.374;2022-10-23T03:00:51;12.90;1.00
12438;DHT22;6283;51.330;12.374;2022-10-23T03:03:26;13.00;1.00
12438;DHT22;6283;51.330;12.374;2022-10-23T03:05:52;12.80;1.00
12438;DHT22;6283;51.330;12.374;2022-10-23T03:08:18;13.00;1.00
12438;DHT22;6283;51.330;12.374;2022-10-23T03:10:43;12.90;1.00
12438;DHT22;6283;51.330;12.374;2022-10-23T03:13:10;13.00;1.00
12438;DHT22;6283;51.330;12.374;2022-10-23T03:15:35;13.00;1.00
12438;DHT22;6283;51.330;12.374;2022-10-23T03:18:01;13.10;1.00
12438;DHT22;6283;51.330;12.374;2022-10-23T03:20:27;12.80;1.00
12438;DHT22;6283;51.330;12.374;2022-10-23T03:22:52;12.90;1.00
12438;DHT22;6283;51.330;12.374;2022-10-23T03:25:18;12.90;1.00
12438;DHT22;6283;51.330;12.374;2022-10-23T03:27:43;12.70;1.00
12438;DHT22;6283;51.330;12.374;2022-10-23T03:30:09;12.70;1.00
12438;DHT22;6283;51.330;12.374;2022-10-23T03:32:35;12.90;1.00
12438;DHT22;6283;51.330;12.374;2022-10-23T03:35:00;12.70;1.00
12438;DHT22;6283;51.330;12.374;2022-10-23T03:37:26;12.60;1.00
12438;DHT22;6283;51.330;12.374;2022-10-23T03:39:51;12.60;1.00
12438;DHT22;6283;51.330;12.374;2022-10-23T03:42:17;12.50;1.00
12438;DHT22;6283;51.330;12.374;2022-10-23T03:44:43;12.60;1.00
12438;DHT22;6283;51.330;12.374;2022-10-23T03:47:09;12.40;1.00
12438;DHT22;6283;51.330;12.374;2022-10-23T03:49:37;12.60;1.00
12438;DHT22;6283;51.330;12.374;2022-10-23T03:52:03;12.70;1.00
12438;DHT22;6283;51.330;12.374;2022-10-23T03:54:28;12.40;1.00
12438;DHT22;6283;51.330;12.374;2022-10-23T03:56:54;12.40;1.00
12438;DHT22;6283;51.330;12.374;2022-10-23T03:59:21;12.60;1.00
12438;DHT22;6283;51.330;12.374;2022-10-23T04:01:46;12.40;1.00
12438;DHT22;6283;51.330;12.374;2022-10-23T04:04:12;12.50;1.00
12438;DHT22;6283;51.330;12.374;2022-10-23T04:06:38;12.40;1.00
12438;DHT22;6283;51.330;12.374;2022-10-23T04:09:05;12.40;1.00
12438;DHT22;6283;51.330;12.374;2022-10-23T04:11:31;12.30;1.00
12438;DHT22;6283;51.330;12.374;2022-10-23T04:13:56;12.40;1.00
12438;DHT22;6283;51.330;12.374;2022-10-23T04:16:23;12.40;1.00
12438;DHT22;6283;51.330;12.374;2022-10-23T04:18:48;12.40;1.00
12438;DHT22;6283;51.330;12.374;2022-10-23T04:21:14;12.40;1.00
12438;DHT22;6283;51.330;12.374;2022-10-23T04:23:40;12.30;1.00
12438;DHT22;6283;51.330;12.374;2022-10-23T04:26:06;12.30;1.00
12438;DHT22;6283;51.330;12.374;2022-10-23T04:28:31;12.40;1.00
12438;DHT22;6283;51.330;12.374;2022-10-23T04:30:57;12.10;1.00
12438;DHT22;6283;51.330;12.374;2022-10-23T04:33:22;12.50;1.00
12438;DHT22;6283;51.330;12.374;2022-10-23T04:35:48;12.30;1.00
12438;DHT22;6283;51.330;12.374;2022-10-23T04:38:13;12.50;1.00
12438;DHT22;6283;51.330;12.374;2022-10-23T04:40:39;12.10;1.00
12438;DHT22;6283;51.330;12.374;2022-10-23T04:43:04;12.00;1.00
12438;DHT22;6283;51.330;12.374;2022-10-23T04:45:30;12.20;1.00
12438;DHT22;6283;51.330;12.374;2022-10-23T04:47:55;12.10;1.00
12438;DHT22;6283;51.330;12.374;2022-10-23T04:50:22;12.00;1.00
12438;DHT22;6283;51.330;12.374;2022-10-23T04:52:48;12.40;1.00
12438;DHT22;6283;51.330;12.374;2022-10-23T04:55:13;12.30;1.00
12438;DHT22;6283;51.330;12.374;2022-10-23T04:57:39;12.20;1.00
12438;DHT22;6283;51.330;12.374;2022-10-23T05:00:07;12.00;1.00
12438;DHT22;6283;51.330;12.374;2022-10-23T05:02:32;11.90;1.00
12438;DHT22;6283;51.330;12.374;2022-10-23T05:04:58;12.00;1.00
12438;DHT22;6283;51.330;12.374;2022-10-23T05:07:24;12.20;1.00
12438;DHT22;6283;51.330;12.374;2022-10-23T05:09:49;12.00;1.00
12438;DHT22;6283;51.330;12.374;2022-10-23T05:12:15;12.30;1.00
12438;DHT22;6283;51.330;12.374;2022-10-23T05:14:40;11.90;1.00
12438;DHT22;6283;51.330;12.374;2022-10-23T05:17:10;12.10;1.00
12438;DHT22;6283;51.330;12.374;2022-10-23T05:19:42;11.90;1.00
12438;DHT22;6283;51.330;12.374;2022-10-23T05:22:11;11.90;1.00
12438;DHT22;6283;51.330;12.374;2022-10-23T05:24:37;12.00;1.00
12438;DHT22;6283;51.330;12.374;2022-10-23T05:27:03;12.20;1.00
12438;DHT22;6283;51.330;12.374;2022-10-23T05:29:28;12.00;1.00
12438;DHT22;6283;51.330;12.374;2022-10-23T05:31:57;12.20;1.00
12438;DHT22;6283;51.330;12.374;2022-10-23T05:34:25;12.00;1.00
12438;DHT22;6283;51.330;12.374;2022-10-23T05:36:53;11.90;1.00
12438;DHT22;6283;51.330;12.374;2022-10-23T05:39:19;11.90;1.00
12438;DHT22;6283;51.330;12.374;2022-10-23T05:41:45;11.90;1.00
12438;DHT22;6283;51.330;12.374;2022-10-23T05:44:10;12.00;1.00
12438;DHT22;6283;51.330;12.374;2022-10-23T05:46:42;12.20;1.00
12438;DHT22;6283;51.330;12.374;2022-10-23T05:49:08;12.30;1.00
12438;DHT22;6283;51.330;12.374;2022-10-23T05:51:38;11.90;1.00
12438;DHT22;6283;51.330;12.374;2022-10-23T05:54:04;12.00;1.00
12438;DHT22;6283;51.330;12.374;2022-10-23T05:56:33;12.20;1.00
12438;DHT22;6283;51.330;12.374;2022-10-23T05:58:59;12.10;1.00
12438;DHT22;6283;51.330;12.374;2022-10-23T06:01:25;12.00;1.00
12438;DHT22;6283;51.330;12.374;2022-10-23T06:03:50;11.90;1.00
12438;DHT22;6283;51.330;12.374;2022-10-23T06:06:16;12.00;1.00
12438;DHT22;6283;51.330;12.374;2022-10-23T06:08:41;12.00;1.00
12438;DHT22;6283;51.330;12.374;2022-10-23T06:11:13;12.00;1.00
12438;DHT22;6283;51.330;12.374;2022-10-23T06:13:41;11.90;1.00
12438;DHT22;6283;51.330;12.374;2022-10-23T06:16:18;11.90;1.00
12438;DHT22;6283;51.330;12.374;2022-10-23T06:18:45;11.90;1.00
12438;DHT22;6283;51.330;12.374;2022-10-23T06:21:11;12.10;1.00
12438;DHT22;6283;51.330;12.374;2022-10-23T06:23:37;12.10;1.00
12438;DHT22;6283;51.330;12.374;2022-10-23T06:26:04;12.10;1.00
12438;DHT22;6283;51.330;12.374;2022-10-23T06:28:30;11.90;1.00
12438;DHT22;6283;51.330;12.374;2022-10-23T06:30:56;12.20;1.00
12438;DHT22;6283;51.330;12.374;2022-10-23T06:33:21;11.90;1.00
12438;DHT22;6283;51.330;12.374;2022-10-23T06:35:47;12.40;1.00
12438;DHT22;6283;51.330;12.374;2022-10-23T06:38:13;12.30;1.00
12438;DHT22;6283;51.330;12.374;2022-10-23T06:40:39;12.40;1.00
12438;DHT22;6283;51.330;12.374;2022-10-23T06:43:04;12.40;1.00
12438;DHT22;6283;51.330;12.374;2022-10-23T06:45:32;12.60;1.00
12438;DHT22;6283;51.330;12.374;2022-10-23T06:47:59;12.40;1.00
12438;DHT22;6283;51.330;12.374;2022-10-23T06:50:25;12.30;1.00
12438;DHT22;6283;51.330;12.374;2022-10-23T06:52:52;12.50;1.00
12438;DHT22;6283;51.330;12.374;2022-10-23T06:55:18;12.50;1.00
12438;DHT22;6283;51.330;12.374;2022-10-23T06:57:43;12.50;1.00
12438;DHT22;6283;51.330;12.374;2022-10-23T07:00:10;12.90;1.00
12438;DHT22;6283;51.330;12.374;2022-10-23T07:02:36;12.70;1.00
12438;DHT22;6283;51.330;12.374;2022-10-23T07:05:01;12.90;1.00
12438;DHT22;6283;51.330;12.374;2022-10-23T07:07:31;12.80;1.00
12438;DHT22;6283;51.330;12.374;2022-10-23T07:09:56;13.10;1.00
12438;DHT22;6283;51.330;12.374;2022-10-23T07:12:22;13.00;1.00
12438;DHT22;6283;51.330;12.374;2022-10-23T07:14:48;12.90;1.00
12438;DHT22;6283;51.330;12.374;2022-10-23T07:17:13;13.10;1.00
12438;DHT22;6283;51.330;12.374;2022-10-23T07:19:39;13.10;1.00
12438;DHT22;6283;51.330;12.374;2022-10-23T07:22:05;13.20;1.00
12438;DHT22;6283;51.330;12.374;2022-10-23T07:24:30;13.30;1.00
12438;DHT22;6283;51.330;12.374;2022-10-23T07:27:02;13.30;1.00
12438;DHT22;6283;51.330;12.374;2022-10-23T07:29:27;13.40;1.00
12438;DHT22;6283;51.330;12.374;2022-10-23T07:31:53;13.50;1.00
12438;DHT22;6283;51.330;12.374;2022-10-23T07:34:18;13.30;1.00
12438;DHT22;6283;51.330;12.374;2022-10-23T07:36:44;13.70;1.00
12438;DHT22;6283;51.330;12.374;2022-10-23T07:39:09;13.60;1.00
12438;DHT22;6283;51.330;12.374;2022-10-23T07:41:36;13.80;1.00
12438;DHT22;6283;51.330;12.374;2022-10-23T07:44:01;13.80;1.00
12438;DHT22;6283;51.330;12.374;2022-10-23T07:46:27;13.80;1.00
12438;DHT22;6283;51.330;12.374;2022-10-23T07:48:53;13.80;1.00
12438;DHT22;6283;51.330;12.374;2022-10-23T07:51:18;13.80;1.00
12438;DHT22;6283;51.330;12.374;2022-10-23T07:53:44;14.00;1.00
12438;DHT22;6283;51.330;12.374;2022-10-23T07:56:16;14.00;1.00
12438;DHT22;6283;51.330;12.374;2022-10-23T07:58:42;14.20;1.00
12438;DHT22;6283;51.330;12.374;2022-10-23T08:01:15;14.10;1.00
12438;DHT22;6283;51.330;12.374;2022-10-23T08:03:42;14.10;1.00
12438;DHT22;6283;51.330;12.374;2022-10-23T08:06:07;14.30;1.00
12438;DHT22;6283;51.330;12.374;2022-10-23T08:08:33;14.30;1.00
12438;DHT22;6283;51.330;12.374;2022-10-23T08:10:58;14.20;1.00
12438;DHT22;6283;51.330;12.374;2022-10-23T08:13:24;14.30;1.00
12438;DHT22;6283;51.330;12.374;2022-10-23T08:15:50;14.30;1.00
12438;DHT22;6283;51.330;12.374;2022-10-23T08:18:17;14.60;1.00
12438;DHT22;6283;51.330;12.374;2022-10-23T08:20:44;14.50;1.00
12438;DHT22;6283;51.330;12.374;2022-10-23T08:23:10;14.60;1.00
12438;DHT22;6283;51.330;12.374;2022-10-23T08:25:38;14.70;1.00
12438;DHT22;6283;51.330;12.374;2022-10-23T08:28:05;14.60;1.00
12438;DHT22;6283;51.330;12.374;2022-10-23T08:30:30;14.70;1.00
12438;DHT22;6283;51.330;12.374;2022-10-23T08:32:56;14.70;1.00
12438;DHT22;6283;51.330;12.374;2022-10-23T08:35:21;14.80;1.00
12438;DHT22;6283;51.330;12.374;2022-10-23T08:37:47;14.90;1.00
12438;DHT22;6283;51.330;12.374;2022-10-23T08:40:15;15.10;1.00
12438;DHT22;6283;51.330;12.374;2022-10-23T08:42:43;15.00;1.00
12438;DHT22;6283;51.330;12.374;2022-10-23T08:45:41;15.10;1.00
12438;DHT22;6283;51.330;12.374;2022-10-23T08:48:29;15.20;1.00
12438;DHT22;6283;51.330;12.374;2022-10-23T08:50:59;15.00;1.00
12438;DHT22;6283;51.330;12.374;2022-10-23T08:56:01;15.40;1.00
12438;DHT22;6283;51.330;12.374;2022-10-23T08:58:51;15.60;1.00
12438;DHT22;6283;51.330;12.374;2022-10-23T09:01:41;15.50;1.00
12438;DHT22;6283;51.330;12.374;2022-10-23T09:04:11;15.80;1.00
12438;DHT22;6283;51.330;12.374;2022-10-23T09:07:03;15.90;1.00
12438;DHT22;6283;51.330;12.374;2022-10-23T09:12:24;16.10;1.00
12438;DHT22;6283;51.330;12.374;2022-10-23T09:17:37;16.30;1.00
12438;DHT22;6283;51.330;12.374;2022-10-23T09:22:57;16.50;1.00
12438;DHT22;6283;51.330;12.374;2022-10-23T09:25:29;16.60;1.00
12438;DHT22;6283;51.330;12.374;2022-10-23T09:27:57;16.70;1.00
12438;DHT22;6283;51.330;12.374;2022-10-23T09:33:00;16.90;1.00
12438;DHT22;6283;51.330;12.374;2022-10-23T09:35:36;17.00;1.00
12438;DHT22;6283;51.330;12.374;2022-10-23T09:38:02;17.10;1.00
12438;DHT22;6283;51.330;12.374;2022-10-23T09:40:37;17.10;1.00
12438;DHT22;6283;51.330;12.374;2022-10-23T09:43:13;17.30;1.00
12438;DHT22;6283;51.330;12.374;2022-10-23T09:45:40;17.30;1.00
12438;DHT22;6283;51.330;12.374;2022-10-23T09:50:35;17.40;1.00
12438;DHT22;6283;51.330;12.374;2022-10-23T09:53:01;17.40;1.00
12438;DHT22;6283;51.330;12.374;2022-10-23T09:55:27;17.50;1.00
12438;DHT22;6283;51.330;12.374;2022-10-23T09:57:53;17.50;1.00
12438;DHT22;6283;51.330;12.374;2022-10-23T10:02:59;17.60;1.00
12438;DHT22;6283;51.330;12.374;2022-10-23T10:10:51;17.80;1.00
12438;DHT22;6283;51.330;12.374;2022-10-23T10:24:16;17.80;1.00
12438;DHT22;6283;51.330;12.374;2022-10-23T10:27:17;17.80;1.00
12438;DHT22;6283;51.330;12.374;2022-10-23T10:33:05;17.80;1.00
12438;DHT22;6283;51.330;12.374;2022-10-23T10:41:36;17.80;1.00
12438;DHT22;6283;51.330;12.374;2022-10-23T10:50:07;18.00;1.00
12438;DHT22;6283;51.330;12.374;2022-10-23T10:53:07;18.10;1.00
12438;DHT22;6283;51.330;12.374;2022-10-23T10:55:40;18.20;1.00
12438;DHT22;6283;51.330;12.374;2022-10-23T11:00:55;18.50;1.00
12438;DHT22;6283;51.330;12.374;2022-10-23T11:03:28;18.60;1.00
12438;DHT22;6283;51.330;12.374;2022-10-23T11:05:57;18.70;1.00
12438;DHT22;6283;51.330;12.374;2022-10-23T11:10:59;19.10;1.00
12438;DHT22;6283;51.330;12.374;2022-10-23T11:13:35;19.20;1.00
12438;DHT22;6283;51.330;12.374;2022-10-23T11:16:14;19.40;1.00
12438;DHT22;6283;51.330;12.374;2022-10-23T11:18:45;19.50;1.00
12438;DHT22;6283;51.330;12.374;2022-10-23T11:21:49;19.60;1.00
12438;DHT22;6283;51.330;12.374;2022-10-23T11:24:49;19.80;1.00
12438;DHT22;6283;51.330;12.374;2022-10-23T11:27:34;20.00;1.00
12438;DHT22;6283;51.330;12.374;2022-10-23T11:36:05;20.70;1.00
12438;DHT22;6283;51.330;12.374;2022-10-23T11:38:39;20.90;1.00
12438;DHT22;6283;51.330;12.374;2022-10-23T11:41:19;21.00;1.00
12438;DHT22;6283;51.330;12.374;2022-10-23T11:43:53;21.20;1.00
12438;DHT22;6283;51.330;12.374;2022-10-23T11:48:53;21.60;1.00
12438;DHT22;6283;51.330;12.374;2022-10-23T11:51:36;21.70;1.00
12438;DHT22;6283;51.330;12.374;2022-10-23T11:56:35;22.00;1.00
12438;DHT22;6283;51.330;12.374;2022-10-23T11:59:21;22.10;1.00
12438;DHT22;6283;51.330;12.374;2022-10-23T12:01:49;22.30;1.00
12438;DHT22;6283;51.330;12.374;2022-10-23T12:04:25;22.40;1.00
12438;DHT22;6283;51.330;12.374;2022-10-23T12:07:12;22.30;1.00
12438;DHT22;6283;51.330;12.374;2022-10-23T12:09:43;22.20;1.00
12438;DHT22;6283;51.330;12.374;2022-10-23T12:14:41;22.20;1.00
12438;DHT22;6283;51.330;12.374;2022-10-23T12:19:51;22.60;1.00
12438;DHT22;6283;51.330;12.374;2022-10-23T12:22:18;23.00;1.00
12438;DHT22;6283;51.330;12.374;2022-10-23T12:24:59;23.30;1.00
12438;DHT22;6283;51.330;12.374;2022-10-23T12:30:13;23.60;1.00
12438;DHT22;6283;51.330;12.374;2022-10-23T12:35:52;23.40;1.00
12438;DHT22;6283;51.330;12.374;2022-10-23T12:38:26;23.20;1.00
12438;DHT22;6283;51.330;12.374;2022-10-23T12:40:55;23.10;1.00
12438;DHT22;6283;51.330;12.374;2022-10-23T12:43:29;23.00;1.00
12438;DHT22;6283;51.330;12.374;2022-10-23T12:45:58;23.10;1.00
12438;DHT22;6283;51.330;12.374;2022-10-23T12:48:24;23.10;1.00
12438;DHT22;6283;51.330;12.374;2022-10-23T12:50:53;23.20;1.00
12438;DHT22;6283;51.330;12.374;2022-10-23T12:53:20;23.20;1.00
12438;DHT22;6283;51.330;12.374;2022-10-23T12:55:59;23.20;1.00
12438;DHT22;6283;51.330;12.374;2022-10-23T12:58:31;23.20;1.00
12438;DHT22;6283;51.330;12.374;2022-10-23T13:00:59;23.20;1.00
12438;DHT22;6283;51.330;12.374;2022-10-23T13:03:27;23.10;1.00
12438;DHT22;6283;51.330;12.374;2022-10-23T13:05:54;23.00;1.00
12438;DHT22;6283;51.330;12.374;2022-10-23T13:08:33;22.90;1.00
12438;DHT22;6283;51.330;12.374;2022-10-23T13:11:00;22.80;1.00
12438;DHT22;6283;51.330;12.374;2022-10-23T13:13:26;22.70;1.00
12438;DHT22;6283;51.330;12.374;2022-10-23T13:15:52;22.60;1.00
12438;DHT22;6283;51.330;12.374;2022-10-23T13:18:18;22.50;1.00
12438;DHT22;6283;51.330;12.374;2022-10-23T13:23:32;22.30;1.00
12438;DHT22;6283;51.330;12.374;2022-10-23T13:26:20;22.20;1.00
12438;DHT22;6283;51.330;12.374;2022-10-23T13:28:47;22.10;1.00
12438;DHT22;6283;51.330;12.374;2022-10-23T13:33:45;21.90;1.00
12438;DHT22;6283;51.330;12.374;2022-10-23T13:38:39;21.80;1.00
12438;DHT22;6283;51.330;12.374;2022-10-23T13:41:11;21.70;1.00
12438;DHT22;6283;51.330;12.374;2022-10-23T13:43:38;21.70;1.00
12438;DHT22;6283;51.330;12.374;2022-10-23T13:46:03;21.70;1.00
12438;DHT22;6283;51.330;12.374;2022-10-23T13:48:29;21.70;1.00
12438;DHT22;6283;51.330;12.374;2022-10-23T13:51:05;21.70;1.00
12438;DHT22;6283;51.330;12.374;2022-10-23T13:53:34;21.60;1.00
12438;DHT22;6283;51.330;12.374;2022-10-23T13:56:00;21.50;1.00
12438;DHT22;6283;51.330;12.374;2022-10-23T13:58:25;21.40;1.00
12438;DHT22;6283;51.330;12.374;2022-10-23T14:00:51;21.30;1.00
12438;DHT22;6283;51.330;12.374;2022-10-23T14:03:17;21.30;1.00
12438;DHT22;6283;51.330;12.374;2022-10-23T14:05:44;21.20;1.00
12438;DHT22;6283;51.330;12.374;2022-10-23T14:08:10;21.10;1.00
12438;DHT22;6283;51.330;12.374;2022-10-23T14:10:35;21.00;1.00
12438;DHT22;6283;51.330;12.374;2022-10-23T14:13:01;21.00;1.00
12438;DHT22;6283;51.330;12.374;2022-10-23T14:15:27;20.90;1.00
12438;DHT22;6283;51.330;12.374;2022-10-23T14:17:52;20.90;1.00
12438;DHT22;6283;51.330;12.374;2022-10-23T14:20:18;20.80;1.00
12438;DHT22;6283;51.330;12.374;2022-10-23T14:22:43;20.70;1.00
12438;DHT22;6283;51.330;12.374;2022-10-23T14:25:09;20.60;1.00
12438;DHT22;6283;51.330;12.374;2022-10-23T14:27:34;20.60;1.00
12438;DHT22;6283;51.330;12.374;2022-10-23T14:30:00;20.50;1.00
12438;DHT22;6283;51.330;12.374;2022-10-23T14:32:26;20.40;1.00
12438;DHT22;6283;51.330;12.374;2022-10-23T14:34:52;20.30;1.00
12438;DHT22;6283;51.330;12.374;2022-10-23T14:37:18;20.30;1.00
12438;DHT22;6283;51.330;12.374;2022-10-23T14:39:45;20.20;1.00
12438;DHT22;6283;51.330;12.374;2022-10-23T14:42:11;20.10;1.00
12438;DHT22;6283;51.330;12.374;2022-10-23T14:44:37;20.10;1.00
12438;DHT22;6283;51.330;12.374;2022-10-23T14:47:03;20.00;1.00
12438;DHT22;6283;51.330;12.374;2022-10-23T14:49:28;20.00;1.00
12438;DHT22;6283;51.330;12.374;2022-10-23T14:51:54;19.90;1.00
12438;DHT22;6283;51.330;12.374;2022-10-23T14:54:20;19.80;1.00
12438;DHT22;6283;51.330;12.374;2022-10-23T14:56:45;19.80;1.00
12438;DHT22;6283;51.330;12.374;2022-10-23T14:59:11;19.70;1.00
12438;DHT22;6283;51.330;12.374;2022-10-23T15:01:39;19.70;1.00
12438;DHT22;6283;51.330;12.374;2022-10-23T15:04:05;19.70;1.00
12438;DHT22;6283;51.330;12.374;2022-10-23T15:06:32;19.60;1.00
12438;DHT22;6283;51.330;12.374;2022-10-23T15:08:58;19.60;1.00
12438;DHT22;6283;51.330;12.374;2022-10-23T15:11:24;19.60;1.00
12438;DHT22;6283;51.330;12.374;2022-10-23T15:13:51;19.50;1.00
12438;DHT22;6283;51.330;12.374;2022-10-23T15:16:17;19.50;1.00
12438;DHT22;6283;51.330;12.374;2022-10-23T15:18:42;19.40;1.00
12438;DHT22;6283;51.330;12.374;2022-10-23T15:21:08;19.40;1.00
12438;DHT22;6283;51.330;12.374;2022-10-23T15:23:39;19.40;1.00
12438;DHT22;6283;51.330;12.374;2022-10-23T15:26:09;19.30;1.00
12438;DHT22;6283;51.330;12.374;2022-10-23T15:28:35;19.30;1.00
12438;DHT22;6283;51.330;12.374;2022-10-23T15:31:01;19.20;1.00
12438;DHT22;6283;51.330;12.374;2022-10-23T15:33:27;19.20;1.00
12438;DHT22;6283;51.330;12.374;2022-10-23T15:35:53;19.20;1.00
12438;DHT22;6283;51.330;12.374;2022-10-23T15:38:20;19.10;1.00
12438;DHT22;6283;51.330;12.374;2022-10-23T15:40:47;19.10;1.00
12438;DHT22;6283;51.330;12.374;2022-10-23T15:43:14;19.10;1.00
12438;DHT22;6283;51.330;12.374;2022-10-23T15:45:40;19.00;1.00
12438;DHT22;6283;51.330;12.374;2022-10-23T15:48:07;19.00;1.00
12438;DHT22;6283;51.330;12.374;2022-10-23T15:50:33;18.90;1.00
12438;DHT22;6283;51.330;12.374;2022-10-23T15:52:59;18.90;1.00
12438;DHT22;6283;51.330;12.374;2022-10-23T15:55:25;18.80;1.00
12438;DHT22;6283;51.330;12.374;2022-10-23T15:57:50;18.80;1.00
12438;DHT22;6283;51.330;12.374;2022-10-23T16:00:16;18.80;1.00
12438;DHT22;6283;51.330;12.374;2022-10-23T16:02:42;18.70;1.00
12438;DHT22;6283;51.330;12.374;2022-10-23T16:05:07;18.60;1.00
12438;DHT22;6283;51.330;12.374;2022-10-23T16:07:33;18.60;1.00
12438;DHT22;6283;51.330;12.374;2022-10-23T16:09:59;18.60;1.00
12438;DHT22;6283;51.330;12.374;2022-10-23T16:12:24;18.60;1.00
12438;DHT22;6283;51.330;12.374;2022-10-23T16:14:50;18.60;1.00
12438;DHT22;6283;51.330;12.374;2022-10-23T16:17:16;18.50;1.00
12438;DHT22;6283;51.330;12.374;2022-10-23T16:19:42;18.50;1.00
12438;DHT22;6283;51.330;12.374;2022-10-23T16:22:08;18.50;1.00
12438;DHT22;6283;51.330;12.374;2022-10-23T16:24:34;18.40;1.00
12438;DHT22;6283;51.330;12.374;2022-10-23T16:26:59;18.40;1.00
12438;DHT22;6283;51.330;12.374;2022-10-23T16:29:26;18.40;1.00
12438;DHT22;6283;51.330;12.374;2022-10-23T16:31:54;18.30;1.00
12438;DHT22;6283;51.330;12.374;2022-10-23T16:34:20;18.30;1.00
12438;DHT22;6283;51.330;12.374;2022-10-23T16:36:45;18.30;1.00
12438;DHT22;6283;51.330;12.374;2022-10-23T16:39:13;18.20;1.00
12438;DHT22;6283;51.330;12.374;2022-10-23T16:41:39;18.20;1.00
12438;DHT22;6283;51.330;12.374;2022-10-23T16:44:05;18.10;1.00
12438;DHT22;6283;51.330;12.374;2022-10-23T16:46:30;18.00;1.00
12438;DHT22;6283;51.330;12.374;2022-10-23T16:48:56;18.00;1.00
12438;DHT22;6283;51.330;12.374;2022-10-23T16:51:24;17.90;1.00
12438;DHT22;6283;51.330;12.374;2022-10-23T16:53:51;17.90;1.00
12438;DHT22;6283;51.330;12.374;2022-10-23T16:56:19;17.80;1.00
12438;DHT22;6283;51.330;12.374;2022-10-23T16:58:45;17.70;1.00
12438;DHT22;6283;51.330;12.374;2022-10-23T17:01:14;17.60;1.00
12438;DHT22;6283;51.330;12.374;2022-10-23T17:03:42;17.60;1.00
12438;DHT22;6283;51.330;12.374;2022-10-23T17:06:11;17.50;1.00
12438;DHT22;6283;51.330;12.374;2022-10-23T17:08:37;17.40;1.00
12438;DHT22;6283;51.330;12.374;2022-10-23T17:13:28;17.30;1.00
12438;DHT22;6283;51.330;12.374;2022-10-23T17:16:07;17.20;1.00
12438;DHT22;6283;51.330;12.374;2022-10-23T17:18:33;17.10;1.00
12438;DHT22;6283;51.330;12.374;2022-10-23T17:20:59;17.10;1.00
12438;DHT22;6283;51.330;12.374;2022-10-23T17:23:26;17.10;1.00
12438;DHT22;6283;51.330;12.374;2022-10-23T17:25:52;17.00;1.00
12438;DHT22;6283;51.330;12.374;2022-10-23T17:28:18;16.90;1.00
12438;DHT22;6283;51.330;12.374;2022-10-23T17:30:43;16.90;1.00
12438;DHT22;6283;51.330;12.374;2022-10-23T17:33:09;16.90;1.00
12438;DHT22;6283;51.330;12.374;2022-10-23T17:35:34;16.80;1.00
12438;DHT22;6283;51.330;12.374;2022-10-23T17:38:00;16.80;1.00
12438;DHT22;6283;51.330;12.374;2022-10-23T17:40:28;16.80;1.00
12438;DHT22;6283;51.330;12.374;2022-10-23T17:42:55;16.80;1.00